Terminal Aerodrome Forecast
Issued by NWS Bismarck, ND

Home | Current Version | Previous Version | Graphics & Text | Print | Product List | Glossary On
Versions: 1 2 3 4 5 6 7 8 9 10 11 12 13 14 15 16 17 18 19 20 21 22 23
000
FTUS43 KBIS 271300 AAA
TAFBIS
TAF AMD
KBIS 271359Z 2714/2812 03004KT 1SM BR SCT002
      TEMPO 2714/2715 1/4SM FG VV002
     FM271600 16007KT P6SM FEW045
     FM280500 14004KT P6SM SCT025 OVC040=

USA.gov is the U.S. government's official web portal to all federal, state and local government web resources and services.